SIA211 WSSS-YSSY
Flight info
| Callsign | SIA211 |
|---|---|
| Flight time | 1h 7m |
| Altitude | 35000 |
| Route | IDBUD1B IDBUD T24 SURGA M635 ATMAP A576 LEKAD/N0486F370 A576 APOMA Y52 VELGI Y105 TARAL Y59 RIVET |
| Aircraft | B77W/H-SDE1E2E3FGHIJ2J3J4J5M1RWXY/LB1D1 |
Departure
| Time | 2026-05-07 18:00 |
|---|---|
| Airport | Singapore Changi Airport (WSSS) |
Arrival
| Time | 2026-05-07 19:08 |
|---|---|
| Airport | Sydney Kingsford Smith International Airport (YSSY) |
| Time | Latitude | Longitude | Altitude | Speed | Heading |
|---|---|---|---|---|---|
| 2026-05-07 16:39 | 1.35609 | 103.98442 | 35 ft | 0 kts | 156° |
| 2026-05-07 17:41 | 1.35621 | 103.98437 | 34 ft | 4 kts | 156° |
| 2026-05-07 17:42 | 1.35646 | 103.98426 | 33 ft | 4 kts | 156° |
| 2026-05-07 17:42 | 1.35666 | 103.98418 | 31 ft | 4 kts | 146° |
| 2026-05-07 17:42 | 1.35680 | 103.98404 | 31 ft | 4 kts | 109° |
| 2026-05-07 17:42 | 1.35683 | 103.98385 | 32 ft | 4 kts | 70° |
| 2026-05-07 17:43 | 1.35673 | 103.98368 | 31 ft | 4 kts | 33° |
| 2026-05-07 17:43 | 1.35650 | 103.98357 | 34 ft | 4 kts | 25° |
| 2026-05-07 17:43 | 1.35626 | 103.98345 | 34 ft | 4 kts | 25° |
| 2026-05-07 17:43 | 1.35618 | 103.98341 | 32 ft | 0 kts | 24° |
| 2026-05-07 17:49 | 1.35622 | 103.98343 | 32 ft | 4 kts | 24° |
| 2026-05-07 17:50 | 1.35695 | 103.98376 | 32 ft | 19 kts | 24° |
| 2026-05-07 17:50 | 1.35868 | 103.98450 | 35 ft | 34 kts | 21° |
| 2026-05-07 17:50 | 1.36104 | 103.98549 | 35 ft | 36 kts | 22° |
| 2026-05-07 17:50 | 1.36304 | 103.98632 | 35 ft | 29 kts | 23° |
| 2026-05-07 17:51 | 1.36486 | 103.98710 | 35 ft | 29 kts | 23° |
| 2026-05-07 17:51 | 1.36669 | 103.98787 | 35 ft | 25 kts | 22° |
| 2026-05-07 17:51 | 1.36755 | 103.98823 | 35 ft | 8 kts | 23° |
| 2026-05-07 17:51 | 1.36804 | 103.98850 | 35 ft | 8 kts | 49° |
| 2026-05-07 17:52 | 1.36796 | 103.98902 | 35 ft | 8 kts | 114° |
| 2026-05-07 17:52 | 1.36773 | 103.98955 | 35 ft | 8 kts | 114° |
| 2026-05-07 17:52 | 1.36749 | 103.99007 | 35 ft | 8 kts | 114° |
| 2026-05-07 17:52 | 1.36726 | 103.99060 | 35 ft | 9 kts | 113° |
| 2026-05-07 17:53 | 1.36693 | 103.99137 | 34 ft | 15 kts | 113° |
| 2026-05-07 17:53 | 1.36648 | 103.99243 | 35 ft | 19 kts | 113° |
| 2026-05-07 17:53 | 1.36593 | 103.99374 | 35 ft | 19 kts | 113° |
| 2026-05-07 17:53 | 1.36567 | 103.99434 | 35 ft | 5 kts | 114° |
| 2026-05-07 17:54 | 1.36553 | 103.99465 | 35 ft | 3 kts | 114° |
| 2026-05-07 17:54 | 1.36540 | 103.99495 | 35 ft | 0 kts | 114° |
| 2026-05-07 17:54 | 1.36535 | 103.99506 | 35 ft | 3 kts | 114° |
| 2026-05-07 17:54 | 1.36521 | 103.99536 | 35 ft | 3 kts | 114° |
| 2026-05-07 17:55 | 1.36521 | 103.99537 | 35 ft | 0 kts | 114° |
| 2026-05-07 17:55 | 1.36510 | 103.99562 | 35 ft | 9 kts | 114° |
| 2026-05-07 17:55 | 1.36485 | 103.99622 | 35 ft | 9 kts | 112° |
| 2026-05-07 17:56 | 1.36460 | 103.99683 | 35 ft | 9 kts | 112° |
| 2026-05-07 17:56 | 1.36434 | 103.99743 | 34 ft | 9 kts | 113° |
| 2026-05-07 17:56 | 1.36412 | 103.99796 | 35 ft | 6 kts | 113° |
| 2026-05-07 17:56 | 1.36394 | 103.99835 | 35 ft | 6 kts | 116° |
| 2026-05-07 17:57 | 1.36364 | 103.99866 | 35 ft | 6 kts | 153° |
| 2026-05-07 17:57 | 1.36335 | 103.99875 | 35 ft | 6 kts | 167° |
| 2026-05-07 17:57 | 1.36275 | 103.99883 | 35 ft | 6 kts | 173° |
| 2026-05-07 17:57 | 1.36231 | 103.99888 | 35 ft | 6 kts | 173° |
| 2026-05-07 17:58 | 1.36186 | 103.99892 | 35 ft | 6 kts | 179° |
| 2026-05-07 17:58 | 1.36142 | 103.99881 | 35 ft | 7 kts | 206° |
| 2026-05-07 17:58 | 1.36103 | 103.99856 | 35 ft | 7 kts | 212° |
| 2026-05-07 17:58 | 1.36084 | 103.99849 | 35 ft | 0 kts | 199° |
| 2026-05-07 17:59 | 1.36061 | 103.99840 | 35 ft | 23 kts | 201° |
| 2026-05-07 17:59 | 1.35675 | 103.99677 | 35 ft | 95 kts | 202° |
| 2026-05-07 18:00 | 1.34860 | 103.99335 | 35 ft | 156 kts | 203° |
| 2026-05-07 18:00 | 1.33710 | 103.98857 | 105 ft | 195 kts | 202° |
| 2026-05-07 18:00 | 1.32438 | 103.98305 | 475 ft | 206 kts | 203° |
| 2026-05-07 18:00 | 1.31128 | 103.97744 | 1146 ft | 203 kts | 202° |
| 2026-05-07 18:01 | 1.29830 | 103.97197 | 1785 ft | 205 kts | 202° |
| 2026-05-07 18:01 | 1.28449 | 103.96617 | 2013 ft | 227 kts | 202° |
| 2026-05-07 18:01 | 1.26904 | 103.95968 | 2231 ft | 252 kts | 202° |
| 2026-05-07 18:01 | 1.25259 | 103.95277 | 2803 ft | 259 kts | 202° |
| 2026-05-07 18:02 | 1.21757 | 103.94642 | 4024 ft | 266 kts | 166° |
| 2026-05-07 18:02 | 1.19941 | 103.95113 | 4608 ft | 272 kts | 166° |
| 2026-05-07 18:02 | 1.18101 | 103.95577 | 5324 ft | 273 kts | 166° |
| 2026-05-07 18:03 | 1.16243 | 103.96041 | 5884 ft | 278 kts | 166° |
| 2026-05-07 18:03 | 1.14351 | 103.96510 | 5994 ft | 283 kts | 166° |
| 2026-05-07 18:03 | 1.12440 | 103.96983 | 6005 ft | 283 kts | 166° |
| 2026-05-07 18:03 | 1.10583 | 103.97552 | 5981 ft | 276 kts | 151° |
| 2026-05-07 18:04 | 1.09039 | 103.98679 | 6024 ft | 277 kts | 140° |
| 2026-05-07 18:04 | 1.07519 | 103.99901 | 6020 ft | 284 kts | 142° |
| 2026-05-07 18:04 | 1.05956 | 104.01116 | 6017 ft | 284 kts | 142° |
| 2026-05-07 18:04 | 1.04401 | 104.02316 | 5991 ft | 280 kts | 142° |
| 2026-05-07 18:05 | 1.02941 | 104.03562 | 5976 ft | 273 kts | 128° |
| 2026-05-07 18:05 | 1.02059 | 104.05240 | 6027 ft | 278 kts | 111° |
| 2026-05-07 18:05 | 1.01323 | 104.07055 | 6006 ft | 284 kts | 112° |
| 2026-05-07 18:05 | 1.00561 | 104.08871 | 5998 ft | 283 kts | 113° |
| 2026-05-07 18:06 | 0.99797 | 104.10676 | 5992 ft | 281 kts | 113° |
| 2026-05-07 18:06 | 0.99039 | 104.12465 | 5993 ft | 279 kts | 113° |
| 2026-05-07 18:06 | 0.98285 | 104.14254 | 6227 ft | 279 kts | 113° |
| 2026-05-07 18:06 | 0.97529 | 104.16050 | 6875 ft | 282 kts | 113° |
| 2026-05-07 18:07 | 0.96765 | 104.17863 | 7548 ft | 284 kts | 113° |
| 2026-05-07 18:07 | 0.95995 | 104.19692 | 8200 ft | 287 kts | 113° |
| 2026-05-07 18:07 | 0.95217 | 104.21538 | 8863 ft | 289 kts | 113° |
| 2026-05-07 18:07 | 0.94387 | 104.23373 | 9498 ft | 292 kts | 118° |
| 2026-05-07 18:08 | 0.93343 | 104.25124 | 10106 ft | 294 kts | 122° |
| 2026-05-07 18:08 | 0.92215 | 104.26872 | 10496 ft | 309 kts | 123° |
| 2026-05-07 18:08 | 0.91005 | 104.28740 | 10666 ft | 331 kts | 122° |
| 2026-05-07 18:08 | 0.89724 | 104.30745 | 10819 ft | 353 kts | 122° |
| 2026-05-07 18:09 | 0.88394 | 104.32849 | 11027 ft | 372 kts | 122° |
| 2026-05-07 18:09 | 0.87001 | 104.35074 | 11522 ft | 382 kts | 122° |
| 2026-05-07 18:09 | 0.85585 | 104.37344 | 12193 ft | 387 kts | 121° |
| 2026-05-07 18:09 | 0.84140 | 104.39665 | 13014 ft | 390 kts | 121° |
| 2026-05-07 18:10 | 0.82725 | 104.41939 | 13778 ft | 393 kts | 121° |
| 2026-05-07 18:10 | 0.81239 | 104.44243 | 14447 ft | 396 kts | 123° |
| 2026-05-07 18:10 | 0.79637 | 104.46496 | 15094 ft | 400 kts | 125° |
| 2026-05-07 18:10 | 0.77990 | 104.48752 | 15747 ft | 403 kts | 125° |
| 2026-05-07 18:11 | 0.76343 | 104.51031 | 16383 ft | 406 kts | 124° |
| 2026-05-07 18:11 | 0.75229 | 104.52591 | 16812 ft | 409 kts | 124° |
| 2026-05-07 18:11 | 0.73560 | 104.54898 | 17409 ft | 409 kts | 128° |
| 2026-05-07 18:11 | 0.70611 | 104.57291 | 17945 ft | 423 kts | 152° |
| 2026-05-07 18:12 | 0.67824 | 104.58262 | 18436 ft | 427 kts | 163° |
| 2026-05-07 18:12 | 0.64940 | 104.59042 | 18885 ft | 431 kts | 162° |
| 2026-05-07 18:12 | 0.62050 | 104.59858 | 19396 ft | 434 kts | 162° |
| 2026-05-07 18:12 | 0.60088 | 104.60429 | 19741 ft | 436 kts | 161° |
| 2026-05-07 18:13 | 0.57206 | 104.61282 | 20248 ft | 439 kts | 161° |
| 2026-05-07 18:13 | 0.54271 | 104.62157 | 20729 ft | 442 kts | 161° |
| 2026-05-07 18:13 | 0.51274 | 104.63051 | 21205 ft | 446 kts | 161° |
| 2026-05-07 18:13 | 0.48461 | 104.64194 | 21470 ft | 445 kts | 146° |
| 2026-05-07 18:14 | 0.46081 | 104.66166 | 21814 ft | 447 kts | 130° |
| 2026-05-07 18:14 | 0.44331 | 104.68710 | 22303 ft | 444 kts | 118° |
| 2026-05-07 18:14 | 0.42806 | 104.71408 | 22713 ft | 448 kts | 118° |
| 2026-05-07 18:14 | 0.41283 | 104.74133 | 23133 ft | 452 kts | 118° |
| 2026-05-07 18:15 | 0.39740 | 104.76880 | 23551 ft | 454 kts | 118° |
| 2026-05-07 18:15 | 0.38177 | 104.79634 | 23921 ft | 457 kts | 118° |
| 2026-05-07 18:15 | 0.36594 | 104.82397 | 24284 ft | 460 kts | 119° |
| 2026-05-07 18:15 | 0.34991 | 104.85176 | 24637 ft | 463 kts | 119° |
| 2026-05-07 18:16 | 0.33377 | 104.87967 | 24990 ft | 465 kts | 119° |
| 2026-05-07 18:16 | 0.31752 | 104.90774 | 25332 ft | 468 kts | 119° |
| 2026-05-07 18:16 | 0.30120 | 104.93595 | 25676 ft | 471 kts | 119° |
| 2026-05-07 18:16 | 0.28478 | 104.96434 | 26019 ft | 473 kts | 119° |
| 2026-05-07 18:17 | 0.26826 | 104.99294 | 26353 ft | 476 kts | 119° |
| 2026-05-07 18:17 | 0.25098 | 105.02281 | 26692 ft | 479 kts | 119° |
| 2026-05-07 18:17 | 0.18916 | 105.12967 | 27867 ft | 487 kts | 119° |
| 2026-05-07 18:17 | 0.12075 | 105.24793 | 28982 ft | 496 kts | 119° |
| 2026-05-07 18:18 | 0.05139 | 105.36786 | 30061 ft | 501 kts | 119° |
| 2026-05-07 18:18 | -0.01806 | 105.48794 | 31307 ft | 497 kts | 119° |
| 2026-05-07 18:18 | -0.08372 | 105.60146 | 32459 ft | 495 kts | 119° |
| 2026-05-07 18:18 | -0.10091 | 105.63119 | 32778 ft | 494 kts | 119° |
| 2026-05-07 18:19 | -0.11812 | 105.66094 | 33095 ft | 494 kts | 119° |
| 2026-05-07 18:19 | -0.13530 | 105.69065 | 33405 ft | 493 kts | 119° |
| 2026-05-07 18:19 | -0.15242 | 105.72025 | 33708 ft | 493 kts | 119° |
| 2026-05-07 18:19 | -0.16955 | 105.74988 | 33976 ft | 492 kts | 119° |
| 2026-05-07 18:20 | -0.18667 | 105.77947 | 34233 ft | 492 kts | 119° |
| 2026-05-07 18:20 | -0.20376 | 105.80903 | 34492 ft | 491 kts | 119° |
| 2026-05-07 18:20 | -0.22085 | 105.83857 | 34734 ft | 491 kts | 119° |
| 2026-05-07 18:21 | -0.25521 | 105.89798 | 34822 ft | 495 kts | 119° |
| 2026-05-07 18:21 | -0.28956 | 105.95740 | 34833 ft | 491 kts | 119° |
| 2026-05-07 18:22 | -0.32360 | 106.01625 | 34857 ft | 488 kts | 119° |
| 2026-05-07 18:22 | -0.35756 | 106.07497 | 34837 ft | 488 kts | 119° |
| 2026-05-07 18:23 | -0.39154 | 106.13374 | 34856 ft | 489 kts | 119° |
| 2026-05-07 18:23 | -0.42555 | 106.19256 | 34857 ft | 489 kts | 119° |
| 2026-05-07 18:24 | -0.45965 | 106.25154 | 34858 ft | 490 kts | 119° |
| 2026-05-07 18:24 | -0.49377 | 106.31055 | 34844 ft | 491 kts | 119° |
| 2026-05-07 18:25 | -33.10310 | 147.41834 | 36566 ft | 492 kts | 122° |
| 2026-05-07 18:25 | -33.11126 | 147.43405 | 37386 ft | 488 kts | 127° |
| 2026-05-07 18:25 | -33.12924 | 147.46882 | 37311 ft | 498 kts | 126° |
| 2026-05-07 18:26 | -33.16598 | 147.54021 | 37338 ft | 512 kts | 125° |
| 2026-05-07 18:26 | -33.20347 | 147.61337 | 37326 ft | 519 kts | 125° |
| 2026-05-07 18:27 | -33.24115 | 147.68704 | 37329 ft | 519 kts | 125° |
| 2026-05-07 18:27 | -33.27869 | 147.76053 | 37318 ft | 518 kts | 125° |
| 2026-05-07 18:28 | -33.31617 | 147.83400 | 37312 ft | 517 kts | 125° |
| 2026-05-07 18:28 | -33.35372 | 147.90712 | 37307 ft | 514 kts | 128° |
| 2026-05-07 18:29 | -33.39763 | 147.97367 | 37312 ft | 506 kts | 138° |
| 2026-05-07 18:29 | -33.44568 | 148.03502 | 37311 ft | 505 kts | 139° |
| 2026-05-07 18:30 | -33.49388 | 148.09649 | 37316 ft | 506 kts | 138° |
| 2026-05-07 18:30 | -33.54181 | 148.15844 | 37315 ft | 507 kts | 138° |
| 2026-05-07 18:31 | -33.58963 | 148.22074 | 37300 ft | 508 kts | 138° |
| 2026-05-07 18:31 | -33.63749 | 148.28324 | 37310 ft | 509 kts | 138° |
| 2026-05-07 18:32 | -33.68536 | 148.34582 | 37305 ft | 509 kts | 138° |
| 2026-05-07 18:32 | -33.73298 | 148.40817 | 37296 ft | 510 kts | 139° |
| 2026-05-07 18:33 | -33.78094 | 148.47107 | 37298 ft | 511 kts | 139° |
| 2026-05-07 18:33 | -33.82891 | 148.53410 | 37301 ft | 511 kts | 139° |
| 2026-05-07 18:34 | -33.87688 | 148.59723 | 37295 ft | 511 kts | 139° |
| 2026-05-07 18:34 | -33.92478 | 148.66039 | 37294 ft | 512 kts | 139° |
| 2026-05-07 18:35 | -33.97282 | 148.72384 | 37295 ft | 513 kts | 139° |
| 2026-05-07 18:35 | -34.02083 | 148.78737 | 37250 ft | 512 kts | 139° |
| 2026-05-07 18:35 | -34.04469 | 148.81902 | 37022 ft | 510 kts | 139° |
| 2026-05-07 18:36 | -34.06858 | 148.85070 | 36671 ft | 511 kts | 139° |
| 2026-05-07 18:36 | -34.09251 | 148.88246 | 36283 ft | 512 kts | 139° |
| 2026-05-07 18:36 | -34.11647 | 148.91428 | 35927 ft | 513 kts | 139° |
| 2026-05-07 18:36 | -34.14048 | 148.94621 | 35537 ft | 515 kts | 139° |
| 2026-05-07 18:37 | -34.16453 | 148.97821 | 35146 ft | 515 kts | 139° |
| 2026-05-07 18:37 | -34.18865 | 149.01035 | 34484 ft | 518 kts | 140° |
| 2026-05-07 18:37 | -34.21290 | 149.04268 | 33724 ft | 517 kts | 140° |
| 2026-05-07 18:37 | -34.23687 | 149.07475 | 33187 ft | 511 kts | 140° |
| 2026-05-07 18:38 | -34.26058 | 149.10649 | 32628 ft | 507 kts | 140° |
| 2026-05-07 18:38 | -34.28411 | 149.13799 | 32088 ft | 502 kts | 140° |
| 2026-05-07 18:38 | -34.30738 | 149.16915 | 31557 ft | 498 kts | 140° |
| 2026-05-07 18:38 | -34.33049 | 149.20008 | 30997 ft | 494 kts | 140° |
| 2026-05-07 18:39 | -34.35346 | 149.23085 | 30468 ft | 490 kts | 140° |
| 2026-05-07 18:39 | -34.37618 | 149.26132 | 29867 ft | 487 kts | 140° |
| 2026-05-07 18:39 | -34.39865 | 149.29182 | 29253 ft | 483 kts | 138° |
| 2026-05-07 18:39 | -34.41790 | 149.32548 | 28638 ft | 492 kts | 126° |
| 2026-05-07 18:40 | -34.43215 | 149.36335 | 28002 ft | 497 kts | 116° |
| 2026-05-07 18:40 | -34.44117 | 149.40383 | 27350 ft | 492 kts | 105° |
| 2026-05-07 18:40 | -34.44588 | 149.44389 | 26705 ft | 470 kts | 103° |
| 2026-05-07 18:40 | -34.44982 | 149.48249 | 26093 ft | 456 kts | 103° |
| 2026-05-07 18:41 | -34.45388 | 149.52113 | 25556 ft | 468 kts | 103° |
| 2026-05-07 18:41 | -34.45823 | 149.56031 | 25003 ft | 470 kts | 103° |
| 2026-05-07 18:41 | -34.46273 | 149.59952 | 24443 ft | 469 kts | 104° |
| 2026-05-07 18:41 | -34.46732 | 149.63857 | 23878 ft | 466 kts | 104° |
| 2026-05-07 18:42 | -34.47192 | 149.67734 | 23256 ft | 464 kts | 104° |
| 2026-05-07 18:42 | -34.47651 | 149.71590 | 22610 ft | 461 kts | 104° |
| 2026-05-07 18:42 | -34.48106 | 149.75425 | 21980 ft | 459 kts | 104° |
| 2026-05-07 18:42 | -34.48557 | 149.79243 | 21362 ft | 457 kts | 104° |
| 2026-05-07 18:43 | -34.48998 | 149.82996 | 20782 ft | 454 kts | 104° |
| 2026-05-07 18:43 | -34.49446 | 149.86823 | 20170 ft | 452 kts | 103° |
| 2026-05-07 18:43 | -34.49677 | 149.90605 | 19560 ft | 453 kts | 92° |
| 2026-05-07 18:43 | -34.49248 | 149.94410 | 18994 ft | 457 kts | 79° |
| 2026-05-07 18:44 | -34.48239 | 149.98054 | 18422 ft | 458 kts | 66° |
| 2026-05-07 18:44 | -34.46769 | 150.01446 | 17795 ft | 453 kts | 62° |
| 2026-05-07 18:44 | -34.45238 | 150.04777 | 17163 ft | 451 kts | 62° |
| 2026-05-07 18:44 | -34.43713 | 150.08089 | 16574 ft | 449 kts | 62° |
| 2026-05-07 18:45 | -34.42211 | 150.11386 | 15967 ft | 447 kts | 63° |
| 2026-05-07 18:45 | -34.40724 | 150.14687 | 15376 ft | 445 kts | 63° |
| 2026-05-07 18:45 | -34.39253 | 150.17977 | 14798 ft | 443 kts | 63° |
| 2026-05-07 18:45 | -34.37795 | 150.21252 | 14221 ft | 441 kts | 64° |
| 2026-05-07 18:46 | -34.36347 | 150.24511 | 13615 ft | 438 kts | 64° |
| 2026-05-07 18:46 | -34.34909 | 150.27745 | 12993 ft | 436 kts | 64° |
| 2026-05-07 18:46 | -34.33495 | 150.30919 | 12389 ft | 433 kts | 63° |
| 2026-05-07 18:46 | -34.32070 | 150.34112 | 11787 ft | 429 kts | 63° |
| 2026-05-07 18:47 | -34.30659 | 150.37277 | 11171 ft | 426 kts | 63° |
| 2026-05-07 18:47 | -34.29254 | 150.40422 | 10614 ft | 423 kts | 63° |
| 2026-05-07 18:47 | -34.27861 | 150.43532 | 10043 ft | 419 kts | 63° |
| 2026-05-07 18:47 | -34.26476 | 150.46619 | 9407 ft | 415 kts | 63° |
| 2026-05-07 18:48 | -34.25106 | 150.49675 | 8780 ft | 412 kts | 64° |
| 2026-05-07 18:48 | -34.23750 | 150.52701 | 8176 ft | 407 kts | 64° |
| 2026-05-07 18:48 | -34.22433 | 150.55642 | 7781 ft | 378 kts | 64° |
| 2026-05-07 18:48 | -34.21256 | 150.58259 | 7853 ft | 333 kts | 64° |
| 2026-05-07 18:49 | -34.20207 | 150.60588 | 7896 ft | 307 kts | 64° |
| 2026-05-07 18:49 | -34.19208 | 150.62816 | 7929 ft | 295 kts | 65° |
| 2026-05-07 18:49 | -34.18233 | 150.64988 | 7985 ft | 294 kts | 65° |
| 2026-05-07 18:49 | -34.17256 | 150.67166 | 7964 ft | 295 kts | 65° |
| 2026-05-07 18:50 | -34.16282 | 150.69335 | 7978 ft | 295 kts | 65° |
| 2026-05-07 18:50 | -34.15304 | 150.71510 | 7997 ft | 295 kts | 65° |
| 2026-05-07 18:50 | -34.14324 | 150.73690 | 7996 ft | 296 kts | 65° |
| 2026-05-07 18:50 | -34.13343 | 150.75868 | 7994 ft | 296 kts | 65° |
| 2026-05-07 18:51 | -34.12360 | 150.78051 | 8003 ft | 296 kts | 65° |
| 2026-05-07 18:51 | -34.11373 | 150.80237 | 7991 ft | 297 kts | 65° |
| 2026-05-07 18:51 | -34.10381 | 150.82432 | 7996 ft | 297 kts | 65° |
| 2026-05-07 18:51 | -34.09391 | 150.84630 | 7999 ft | 304 kts | 65° |
| 2026-05-07 18:52 | -34.08330 | 150.87000 | 8068 ft | 341 kts | 64° |
| 2026-05-07 18:52 | -34.07146 | 150.89642 | 8113 ft | 366 kts | 64° |
| 2026-05-07 18:52 | -34.05944 | 150.92299 | 8019 ft | 355 kts | 64° |
| 2026-05-07 18:52 | -34.04776 | 150.94877 | 7853 ft | 350 kts | 64° |
| 2026-05-07 18:53 | -34.03823 | 150.97520 | 7763 ft | 340 kts | 81° |
| 2026-05-07 18:53 | -34.03755 | 151.00291 | 7533 ft | 325 kts | 106° |
| 2026-05-07 18:53 | -34.04471 | 151.02782 | 7398 ft | 306 kts | 122° |
| 2026-05-07 18:53 | -34.05618 | 151.04833 | 7301 ft | 285 kts | 137° |
| 2026-05-07 18:54 | -34.06953 | 151.06521 | 7225 ft | 271 kts | 141° |
| 2026-05-07 18:54 | -34.08429 | 151.07755 | 7013 ft | 251 kts | 163° |
| 2026-05-07 18:54 | -34.10074 | 151.08293 | 6829 ft | 242 kts | 172° |
| 2026-05-07 18:54 | -34.11713 | 151.08712 | 6570 ft | 240 kts | 172° |
| 2026-05-07 18:55 | -34.13344 | 151.09125 | 6308 ft | 239 kts | 171° |
| 2026-05-07 18:55 | -34.14964 | 151.09540 | 6035 ft | 238 kts | 171° |
| 2026-05-07 18:55 | -34.16580 | 151.09957 | 5734 ft | 237 kts | 171° |
| 2026-05-07 18:55 | -34.18190 | 151.10372 | 5457 ft | 235 kts | 171° |
| 2026-05-07 18:56 | -34.19764 | 151.10823 | 5165 ft | 235 kts | 168° |
| 2026-05-07 18:56 | -34.21293 | 151.11322 | 4880 ft | 221 kts | 168° |
| 2026-05-07 18:56 | -34.22743 | 151.11809 | 4421 ft | 211 kts | 168° |
| 2026-05-07 18:56 | -34.24080 | 151.12277 | 4349 ft | 195 kts | 168° |
| 2026-05-07 18:57 | -34.25392 | 151.12744 | 4375 ft | 198 kts | 168° |
| 2026-05-07 18:57 | -34.26717 | 151.13236 | 4367 ft | 199 kts | 162° |
| 2026-05-07 18:57 | -34.27795 | 151.14301 | 4399 ft | 211 kts | 129° |
| 2026-05-07 18:57 | -34.28205 | 151.16038 | 4276 ft | 223 kts | 95° |
| 2026-05-07 18:58 | -34.28165 | 151.17289 | 4219 ft | 217 kts | 100° |
| 2026-05-07 18:58 | -34.28670 | 151.18916 | 4155 ft | 201 kts | 137° |
| 2026-05-07 18:58 | -34.29776 | 151.19749 | 4168 ft | 188 kts | 173° |
| 2026-05-07 18:58 | -34.31052 | 151.20040 | 4160 ft | 190 kts | 160° |
| 2026-05-07 18:59 | -34.32013 | 151.21188 | 4177 ft | 203 kts | 122° |
| 2026-05-07 18:59 | -34.32167 | 151.22848 | 4120 ft | 200 kts | 81° |
| 2026-05-07 18:59 | -34.31432 | 151.24196 | 4056 ft | 195 kts | 35° |
| 2026-05-07 18:59 | -34.30197 | 151.24764 | 4077 ft | 189 kts | 10° |
| 2026-05-07 19:00 | -34.28917 | 151.25043 | 4065 ft | 191 kts | 4° |
| 2026-05-07 19:00 | -34.27598 | 151.25154 | 3978 ft | 189 kts | 357° |
| 2026-05-07 19:00 | -34.26297 | 151.25146 | 3859 ft | 184 kts | 353° |
| 2026-05-07 19:00 | -34.25029 | 151.25057 | 3736 ft | 178 kts | 352° |
| 2026-05-07 19:01 | -34.23807 | 151.24956 | 3672 ft | 179 kts | 349° |
| 2026-05-07 19:01 | -34.22570 | 151.24777 | 3569 ft | 179 kts | 346° |
| 2026-05-07 19:01 | -34.21343 | 151.24524 | 3450 ft | 177 kts | 343° |
| 2026-05-07 19:01 | -34.20145 | 151.24241 | 3293 ft | 173 kts | 342° |
| 2026-05-07 19:02 | -34.18976 | 151.23947 | 3127 ft | 169 kts | 341° |
| 2026-05-07 19:02 | -34.17821 | 151.23648 | 3069 ft | 170 kts | 341° |
| 2026-05-07 19:02 | -34.16643 | 151.23341 | 3020 ft | 170 kts | 342° |
| 2026-05-07 19:02 | -34.15482 | 151.23038 | 2997 ft | 169 kts | 341° |
| 2026-05-07 19:03 | -34.14318 | 151.22733 | 3001 ft | 174 kts | 341° |
| 2026-05-07 19:03 | -34.13143 | 151.22425 | 3004 ft | 175 kts | 341° |
| 2026-05-07 19:03 | -34.12362 | 151.22222 | 2993 ft | 174 kts | 341° |
| 2026-05-07 19:03 | -34.11185 | 151.21915 | 2975 ft | 172 kts | 341° |
| 2026-05-07 19:04 | -34.09997 | 151.21603 | 2825 ft | 178 kts | 340° |
| 2026-05-07 19:04 | -34.08810 | 151.21296 | 2586 ft | 168 kts | 339° |
| 2026-05-07 19:04 | -34.07693 | 151.21006 | 2365 ft | 156 kts | 338° |
| 2026-05-07 19:04 | -34.06661 | 151.20736 | 2146 ft | 151 kts | 337° |
| 2026-05-07 19:05 | -34.05646 | 151.20469 | 1956 ft | 151 kts | 335° |
| 2026-05-07 19:05 | -34.04638 | 151.20206 | 1751 ft | 145 kts | 335° |
| 2026-05-07 19:05 | -34.03660 | 151.19950 | 1581 ft | 144 kts | 335° |
| 2026-05-07 19:05 | -34.02675 | 151.19691 | 1349 ft | 142 kts | 339° |
| 2026-05-07 19:06 | -34.01718 | 151.19444 | 1130 ft | 139 kts | 339° |
| 2026-05-07 19:06 | -33.99814 | 151.18929 | 761 ft | 139 kts | 341° |
| 2026-05-07 19:06 | -33.98887 | 151.18697 | 516 ft | 134 kts | 343° |
| 2026-05-07 19:07 | -33.97972 | 151.18466 | 365 ft | 133 kts | 341° |
| 2026-05-07 19:07 | -33.97080 | 151.18232 | 179 ft | 133 kts | 342° |
| 2026-05-07 19:07 | -33.96173 | 151.17999 | 49 ft | 134 kts | 342° |
| 2026-05-07 19:07 | -33.95339 | 151.17785 | 34 ft | 103 kts | 348° |
| 2026-05-07 19:08 | -33.94822 | 151.17650 | 34 ft | 49 kts | 347° |
| 2026-05-07 19:08 | -33.94635 | 151.17600 | 33 ft | 26 kts | 345° |
| 2026-05-07 19:08 | -33.94474 | 151.17507 | 34 ft | 26 kts | 327° |
| 2026-05-07 19:08 | -33.94336 | 151.17367 | 35 ft | 26 kts | 317° |
| 2026-05-07 19:09 | -33.94295 | 151.17324 | 35 ft | 0 kts | 322° |
| 2026-05-07 19:11 | -33.94289 | 151.17318 | 49 ft | 8 kts | 323° |
| 2026-05-07 19:11 | -33.94212 | 151.17282 | 34 ft | 13 kts | 346° |
| 2026-05-07 19:11 | -33.94120 | 151.17262 | 33 ft | 14 kts | 350° |
| 2026-05-07 19:12 | -33.94027 | 151.17239 | 34 ft | 14 kts | 347° |
| 2026-05-07 19:12 | -33.93973 | 151.17179 | 34 ft | 11 kts | 268° |
| 2026-05-07 19:12 | -33.94004 | 151.17092 | 34 ft | 11 kts | 253° |
| 2026-05-07 19:12 | -33.94026 | 151.16993 | 35 ft | 13 kts | 255° |
| 2026-05-07 19:13 | -33.94055 | 151.16867 | 35 ft | 18 kts | 254° |
| 2026-05-07 19:13 | -33.94092 | 151.16710 | 35 ft | 22 kts | 254° |
| 2026-05-07 19:13 | -33.94135 | 151.16526 | 35 ft | 19 kts | 254° |
| 2026-05-07 19:13 | -33.94165 | 151.16395 | 35 ft | 12 kts | 254° |
| 2026-05-07 19:14 | -33.94152 | 151.16309 | 35 ft | 6 kts | 337° |
| 2026-05-07 19:14 | -33.94109 | 151.16333 | 35 ft | 7 kts | 43° |
| 2026-05-07 19:14 | -33.94084 | 151.16360 | 35 ft | 0 kts | 42° |
| 2026-05-07 19:14 | -33.94076 | 151.16369 | 35 ft | 3 kts | 42° |
| 2026-05-07 19:15 | -33.94063 | 151.16384 | 35 ft | 0 kts | 43° |
| 2026-05-07 19:15 | -33.94062 | 151.16385 | 35 ft | 1 kts | 43° |
| 2026-05-07 19:15 | -33.94060 | 151.16387 | 35 ft | 0 kts | 43° |